Time;durP1;ratioP1;P1;durP2;ratioP2;P2;SDS_P1;SDS_P2;PMS_P1;PMS_P2;Temp;Humidity;BMP_temperature;BMP_pressure;BME280_temperature;BME280_humidity;BME280_pressure;Samples;Min_cycle;Max_cycle;Signal;HPM_P1;HPM_P2
2024/01/11 00:02:04;;;;;;;56.65;21.40;;;;;;;-6.18;100.00;99846.84;5033234;28;20033;-50
2024/01/11 00:04:30;;;;;;;71.78;22.30;;;;;;;-6.18;100.00;99838.97;5031549;28;20030;-50
2024/01/11 00:06:55;;;;;;;56.65;21.92;;;;;;;-6.12;100.00;99848.34;5035638;28;20041;-50
2024/01/11 00:09:20;;;;;;;61.72;24.25;;;;;;;-6.24;100.00;99841.88;5032867;28;20044;-50
2024/01/11 00:11:49;;;;;;;61.83;21.50;;;;;;;-6.29;100.00;99836.81;5034359;28;20033;-50
2024/01/11 00:14:14;;;;;;;49.17;17.48;;;;;;;-6.29;100.00;99844.69;5030572;28;20092;-50
2024/01/11 00:16:41;;;;;;;46.95;18.67;;;;;;;-6.17;100.00;99840.66;5033548;28;20040;-50
2024/01/11 00:19:06;;;;;;;51.95;19.95;;;;;;;-6.27;100.00;99842.00;5029550;28;20021;-50
2024/01/11 00:21:31;;;;;;;57.53;20.05;;;;;;;-6.30;100.00;99844.78;5034911;28;20101;-50
2024/01/11 00:23:57;;;;;;;50.05;18.15;;;;;;;-6.35;100.00;99850.25;5039410;28;20031;-50
2024/01/11 00:26:22;;;;;;;45.22;17.13;;;;;;;-6.40;100.00;99855.72;5039990;28;20029;-55
2024/01/11 00:28:48;;;;;;;57.78;19.42;;;;;;;-6.46;100.00;99845.50;5033834;28;20072;-50
2024/01/11 00:31:14;;;;;;;57.55;18.95;;;;;;;-6.47;100.00;99846.44;5034345;28;20044;-50
2024/01/11 00:33:40;;;;;;;46.60;17.30;;;;;;;-6.46;100.00;99849.91;5039629;22;20138;-55
2024/01/11 00:36:05;;;;;;;52.13;18.13;;;;;;;-6.52;100.00;99855.44;5033685;28;20084;-54
2024/01/11 00:38:30;;;;;;;51.95;18.67;;;;;;;-6.51;100.00;99857.16;5031478;28;20370;-56
2024/01/11 00:40:56;;;;;;;50.60;18.75;;;;;;;-6.48;100.00;99847.34;5014050;28;20049;-55
2024/01/11 00:43:21;;;;;;;48.42;17.55;;;;;;;-6.54;100.00;99858.16;5033008;28;20457;-55
2024/01/11 00:45:46;;;;;;;48.00;18.65;;;;;;;-6.57;100.00;99853.03;5031187;28;20033;-55
2024/01/11 00:48:12;;;;;;;48.58;18.67;;;;;;;-6.55;100.00;99856.47;5033793;28;20528;-55
2024/01/11 00:50:37;;;;;;;49.22;19.30;;;;;;;-6.54;100.00;99858.16;5034073;28;20032;-55
2024/01/11 00:53:03;;;;;;;52.28;19.75;;;;;;;-6.40;100.00;99866.25;5032427;28;20060;-60
2024/01/11 00:55:29;;;;;;;49.35;17.77;;;;;;;-6.30;100.00;99852.69;5029642;28;20064;-55
2024/01/11 00:57:54;;;;;;;47.70;18.20;;;;;;;-6.44;100.00;99859.44;5033760;28;20117;-55
2024/01/11 01:00:20;;;;;;;49.50;19.05;;;;;;;-6.51;100.00;99857.16;5031440;28;20025;-55
2024/01/11 01:02:46;;;;;;;46.85;17.70;;;;;;;-6.57;100.00;99871.47;5032839;28;20041;-54
2024/01/11 01:05:12;;;;;;;48.15;18.05;;;;;;;-6.59;100.00;99854.88;5026515;28;20477;-55
2024/01/11 01:07:37;;;;;;;55.80;20.92;;;;;;;-6.58;100.00;99861.00;5031495;28;20036;-54
2024/01/11 01:10:03;;;;;;;52.47;19.02;;;;;;;-6.58;100.00;99861.84;5012546;28;20029;-54
2024/01/11 01:12:29;;;;;;;56.80;20.38;;;;;;;-6.55;100.00;99869.63;5033508;28;20036;-55
2024/01/11 01:14:55;;;;;;;54.72;19.45;;;;;;;-6.52;100.00;99874.75;5029940;28;20385;-54
2024/01/11 01:17:22;;;;;;;60.78;19.92;;;;;;;-6.57;100.00;99875.88;5031468;28;20112;-55
2024/01/11 01:19:47;;;;;;;57.88;20.80;;;;;;;-6.47;100.00;99880.66;5033763;28;20029;-55
2024/01/11 01:22:13;;;;;;;55.83;21.25;;;;;;;-6.52;100.00;99872.09;5030581;28;20037;-55
2024/01/11 01:24:38;;;;;;;59.05;20.80;;;;;;;-6.68;100.00;99873.69;5029597;28;20034;-55
2024/01/11 01:27:03;;;;;;;61.47;21.83;;;;;;;-6.67;100.00;99872.78;5032923;28;20025;-55
2024/01/11 01:29:29;;;;;;;55.47;21.75;;;;;;;-6.56;100.00;99878.41;5031521;28;20033;-55
2024/01/11 01:31:54;;;;;;;55.58;21.70;;;;;;;-6.62;100.00;99881.34;5028829;28;20356;-55
2024/01/11 01:34:20;;;;;;;58.97;21.60;;;;;;;-6.57;100.00;99889.03;5023268;28;20037;-55
2024/01/11 01:36:45;;;;;;;60.78;21.48;;;;;;;-6.67;100.00;99883.31;5026996;28;20033;-54
2024/01/11 01:39:11;;;;;;;56.55;21.40;;;;;;;-6.73;100.00;99888.84;5012066;28;20036;-55
2024/01/11 01:41:36;;;;;;;58.08;21.10;;;;;;;-6.68;100.00;99892.13;5031582;28;20389;-54
2024/01/11 01:44:02;;;;;;;54.13;18.73;;;;;;;-6.77;100.00;99897.81;5032337;28;20457;-54
2024/01/11 01:46:28;;;;;;;55.53;20.77;;;;;;;-6.85;100.00;99883.19;5031942;28;20040;-55
2024/01/11 01:49:00;;;;;;;56.92;19.40;;;;;;;-6.77;100.00;99892.53;5030874;28;20104;-55
2024/01/11 01:51:28;;;;;;;54.80;20.27;;;;;;;-6.73;100.00;99894.09;5032542;28;20029;-54
2024/01/11 01:53:55;;;;;;;58.58;20.73;;;;;;;-6.79;100.00;99899.63;5032172;28;20087;-54
2024/01/11 01:56:21;;;;;;;48.80;19.80;;;;;;;-6.92;100.00;99887.00;5032177;28;20461;-55
2024/01/11 01:58:50;;;;;;;54.75;18.85;;;;;;;-6.89;100.00;99896.53;5029366;28;20014;-54
2024/01/11 02:01:16;;;;;;;55.80;20.25;;;;;;;-6.79;100.00;99895.22;5031767;28;20033;-54
2024/01/11 02:03:43;;;;;;;59.38;21.33;;;;;;;-6.89;100.00;99897.44;5032178;28;20032;-55
2024/01/11 02:06:08;;;;;;;51.80;18.48;;;;;;;-6.87;100.00;99898.19;5024703;28;20031;-55
2024/01/11 02:08:34;;;;;;;50.72;18.55;;;;;;;-6.99;100.00;99884.75;5032360;28;20037;-55
2024/01/11 02:11:00;;;;;;;53.85;19.52;;;;;;;-6.96;100.00;99900.38;5036657;28;20033;-56
2024/01/11 02:13:26;;;;;;;49.85;19.42;;;;;;;-7.18;100.00;99882.88;5029979;28;20086;-55
2024/01/11 02:15:51;;;;;;;55.38;19.98;;;;;;;-7.17;100.00;99902.16;5025564;28;20025;-55
2024/01/11 02:18:17;;;;;;;56.40;21.45;;;;;;;-7.24;100.00;99900.69;5032276;28;20026;-57
2024/01/11 02:20:43;;;;;;;46.33;19.63;;;;;;;-7.19;100.00;99899.56;5032600;28;20025;-58
2024/01/11 02:23:14;;;;;;;50.15;19.13;;;;;;;-7.23;100.00;99894.50;5034498;28;20025;-63
2024/01/11 02:25:40;;;;;;;54.85;20.02;;;;;;;-7.19;100.00;99899.56;5034449;28;20067;-55
2024/01/11 02:28:05;;;;;;;63.85;20.65;;;;;;;-7.31;100.00;99879.94;5034898;28;20029;-55
2024/01/11 02:30:30;;;;;;;46.63;18.23;;;;;;;-7.24;100.00;99903.31;5027643;28;20057;-55
2024/01/11 02:32:57;;;;;;;55.63;19.05;;;;;;;-7.18;100.00;99895.16;5032019;28;20025;-55
2024/01/11 02:35:24;;;;;;;56.55;20.42;;;;;;;-7.24;100.00;99887.53;5028017;28;20029;-55
2024/01/11 02:37:50;;;;;;;53.38;19.25;;;;;;;-7.27;100.00;99894.63;5029956;28;20037;-54
2024/01/11 02:40:18;;;;;;;54.15;19.60;;;;;;;-7.33;100.00;99900.16;5010549;28;20025;-55
2024/01/11 02:42:43;;;;;;;60.42;19.77;;;;;;;-7.27;100.00;99897.25;5030068;28;20021;-60
2024/01/11 02:45:10;;;;;;;51.45;18.30;;;;;;;-7.34;100.00;99887.91;5031787;28;20099;-54
2024/01/11 02:47:36;;;;;;;53.78;19.35;;;;;;;-7.36;100.00;99894.16;5032976;28;20424;-55
2024/01/11 02:50:01;;;;;;;53.35;20.25;;;;;;;-7.43;100.00;99895.34;5027537;28;20100;-55
2024/01/11 02:52:27;;;;;;;57.72;18.65;;;;;;;-7.47;100.00;99899.84;5031252;28;20135;-55
2024/01/11 02:54:52;;;;;;;55.33;19.80;;;;;;;-7.33;100.00;99897.53;5027227;28;20106;-54
2024/01/11 02:57:17;;;;;;;59.15;18.27;;;;;;;-7.32;100.00;99901.00;5008507;28;20026;-54
2024/01/11 02:59:43;;;;;;;50.03;19.42;;;;;;;-7.26;100.00;99900.75;5028780;28;20110;-54
2024/01/11 03:02:09;;;;;;;54.65;18.92;;;;;;;-7.22;100.00;99885.72;5032352;28;20377;-54
2024/01/11 03:04:34;;;;;;;49.30;17.42;;;;;;;-7.23;100.00;99895.38;5028373;28;20045;-54
2024/01/11 03:07:00;;;;;;;53.25;18.08;;;;;;;-7.23;100.00;99887.50;5030286;28;20025;-54
2024/01/11 03:09:25;;;;;;;46.13;18.40;;;;;;;-7.28;100.00;99887.69;5014501;28;20036;-54
2024/01/11 03:11:50;;;;;;;54.10;18.92;;;;;;;-7.13;100.00;99887.94;5032192;28;20492;-54
2024/01/11 03:14:16;;;;;;;46.83;18.30;;;;;;;-7.21;100.00;99888.25;5030855;28;20057;-54
2024/01/11 03:16:42;;;;;;;50.67;18.23;;;;;;;-7.12;100.00;99881.78;5031796;28;20032;-54
2024/01/11 03:19:07;;;;;;;53.58;19.63;;;;;;;-7.29;100.00;99893.84;5030288;28;20021;-54
2024/01/11 03:21:33;;;;;;;53.10;17.92;;;;;;;-7.37;100.00;99888.03;5027846;28;20175;-54
2024/01/11 03:23:59;;;;;;;49.55;18.98;;;;;;;-7.41;100.00;99883.84;5021066;28;20083;-54
2024/01/11 03:26:25;;;;;;;51.83;18.85;;;;;;;-7.44;100.00;99880.47;5065852;22;20030;-79
2024/01/11 03:28:50;;;;;;;55.35;19.27;;;;;;;-7.40;100.00;99872.41;5026959;28;20017;-79
2024/01/11 03:31:15;;;;;;;45.28;17.70;;;;;;;-7.43;100.00;99879.56;5028370;28;20051;-78
2024/01/11 03:33:41;;;;;;;51.47;17.67;;;;;;;-7.48;100.00;99874.50;5050732;28;20028;-79
2024/01/11 03:36:11;;;;;;;48.75;19.65;;;;;;;-7.60;100.00;99857.44;5046413;28;20057;-78
2024/01/11 03:38:36;;;;;;;47.38;18.33;;;;;;;-7.56;100.00;99879.22;5030189;28;20121;-80
2024/01/11 03:41:07;;;;;;;55.65;18.92;;;;;;;-7.57;100.00;99881.00;5047832;28;20090;-80
2024/01/11 03:43:32;;;;;;;58.30;19.75;;;;;;;-7.79;100.00;99854.72;5030128;28;20080;-79
2024/01/11 03:45:58;;;;;;;53.53;18.48;;;;;;;-7.65;100.00;99862.06;5033763;28;20026;-79
2024/01/11 03:48:23;;;;;;;59.70;19.05;;;;;;;-7.76;100.00;99843.25;5033756;28;20025;-79
2024/01/11 03:50:48;;;;;;;48.30;18.77;;;;;;;-7.56;100.00;99884.47;5034360;28;20028;-79
2024/01/11 03:53:13;;;;;;;48.50;18.95;;;;;;;-7.59;100.00;99868.84;5036298;28;20030;-79
2024/01/11 03:55:39;;;;;;;48.22;18.25;;;;;;;-7.47;100.00;99863.06;5053334;28;20033;-78
2024/01/11 03:58:04;;;;;;;54.67;18.50;;;;;;;-7.73;100.00;99841.38;5041434;28;20044;-79
2024/01/11 04:00:29;;;;;;;51.42;18.50;;;;;;;-7.56;100.00;99871.34;5047187;28;20026;-78
2024/01/11 04:02:54;;;;;;;47.75;18.60;;;;;;;-7.60;100.00;99864.50;5057474;28;20044;-79
2024/01/11 04:05:20;;;;;;;50.50;19.00;;;;;;;-7.73;100.00;99854.50;5030053;28;20033;-78
2024/01/11 04:07:45;;;;;;;52.55;17.73;;;;;;;-7.65;100.00;99851.56;5015261;28;20061;-79
2024/01/11 04:10:10;;;;;;;49.67;17.98;;;;;;;-7.54;100.00;99873.00;5011543;28;20035;-79
2024/01/11 04:12:37;;;;;;;51.58;18.40;;;;;;;-7.52;100.00;99865.91;5005029;28;20383;-79
2024/01/11 04:15:03;;;;;;;51.03;18.15;;;;;;;-7.56;100.00;99866.94;5012405;28;20413;-79
2024/01/11 04:17:28;;;;;;;58.45;18.65;;;;;;;-7.54;100.00;99869.50;5016128;28;20080;-79
2024/01/11 04:19:53;;;;;;;47.55;19.15;;;;;;;-7.53;100.00;99855.44;5012941;28;20033;-79
2024/01/11 04:22:19;;;;;;;56.03;20.50;;;;;;;-7.68;100.00;99845.56;5030450;28;20060;-79
2024/01/11 04:24:44;;;;;;;54.83;18.52;;;;;;;-7.74;100.00;99854.56;5017009;28;20067;-80
2024/01/11 04:27:10;;;;;;;43.72;18.08;;;;;;;-7.77;100.00;99852.91;5018332;28;20479;-79
2024/01/11 04:29:35;;;;;;;60.65;20.00;;;;;;;-7.66;100.00;99870.00;5032239;22;20041;-62
2024/01/11 04:32:01;;;;;;;54.15;18.80;;;;;;;-7.73;100.00;99875.50;5054095;28;20035;-61
2024/01/11 04:34:27;;;;;;;60.30;19.83;;;;;;;-7.69;100.00;99870.97;5055014;28;20085;-62
2024/01/11 04:36:52;;;;;;;54.05;19.73;;;;;;;-7.66;100.00;99862.97;5032460;28;20037;-62
2024/01/11 04:39:18;;;;;;;54.67;20.70;;;;;;;-7.64;100.00;99873.44;5046771;28;20112;-61
2024/01/11 04:41:43;;;;;;;56.60;20.05;;;;;;;-7.73;100.00;99862.38;5034501;28;20064;-62
2024/01/11 04:44:10;;;;;;;54.50;19.13;;;;;;;-7.64;100.00;99874.28;5035752;28;20391;-62
2024/01/11 04:46:35;;;;;;;53.78;18.45;;;;;;;-7.66;100.00;99864.75;5040155;28;20040;-62
2024/01/11 04:49:00;;;;;;;42.83;17.77;;;;;;;-7.51;100.00;99872.00;5037457;28;20033;-61
2024/01/11 04:51:26;;;;;;;52.53;18.95;;;;;;;-7.45;100.00;99863.84;5036646;28;20112;-62
2024/01/11 04:53:52;;;;;;;57.78;20.00;;;;;;;-7.39;100.00;99873.25;5035253;28;20037;-62
2024/01/11 04:56:17;;;;;;;52.42;20.20;;;;;;;-7.51;100.00;99869.38;5043157;28;20109;-62
2024/01/11 04:58:44;;;;;;;45.72;17.25;;;;;;;-7.63;100.00;99877.75;5027037;28;20787;-61
2024/01/11 05:01:14;;;;;;;42.97;16.77;;;;;;;-7.73;100.00;99878.16;5032284;28;20043;-61
2024/01/11 05:03:40;;;;;;;51.90;18.92;;;;;;;-7.89;100.00;99887.53;5034857;28;20468;-60
2024/01/11 05:06:06;;;;;;;50.03;18.35;;;;;;;-7.97;100.00;99877.31;5036157;28;20095;-61
2024/01/11 05:08:31;;;;;;;55.22;19.08;;;;;;;-7.97;100.00;99886.97;5042769;28;20029;-61
2024/01/11 05:10:56;;;;;;;59.30;19.40;;;;;;;-7.96;100.00;99893.97;5041615;28;20017;-61
2024/01/11 05:13:22;;;;;;;46.92;18.33;;;;;;;-7.91;100.00;99896.38;5027948;28;20124;-62
2024/01/11 05:15:47;;;;;;;55.55;17.90;;;;;;;-7.97;100.00;99884.34;5039638;28;20033;-61
2024/01/11 05:18:14;;;;;;;47.28;18.27;;;;;;;-7.87;100.00;99896.22;5033681;28;20569;-61
2024/01/11 05:20:39;;;;;;;53.83;19.30;;;;;;;-7.83;100.00;99884.69;5030874;28;20030;-60
2024/01/11 05:23:05;;;;;;;43.83;18.63;;;;;;;-7.91;100.00;99899.00;5038202;28;20025;-61
2024/01/11 05:25:33;;;;;;;55.60;19.10;;;;;;;-7.97;100.00;99897.47;5041644;28;20103;-61
2024/01/11 05:28:03;;;;;;;52.10;18.48;;;;;;;-8.07;100.00;99901.38;5038090;28;20060;-60
2024/01/11 05:30:28;;;;;;;61.97;19.65;;;;;;;-8.10;100.00;99901.50;5027937;28;20044;-61
2024/01/11 05:32:54;;;;;;;60.72;21.38;;;;;;;-8.10;100.00;99904.13;5030472;28;20390;-60
2024/01/11 05:35:20;;;;;;;49.63;18.83;;;;;;;-8.00;100.00;99914.22;5031132;28;20037;-61
2024/01/11 05:37:45;;;;;;;50.75;17.98;;;;;;;-8.02;100.00;99904.69;5023451;28;20013;-60
2024/01/11 05:40:11;;;;;;;56.10;20.27;;;;;;;-7.97;100.00;99911.47;5023611;28;20033;-61
2024/01/11 05:42:37;;;;;;;59.80;19.98;;;;;;;-7.95;100.00;99907.00;5020530;28;20554;-61
2024/01/11 05:45:06;;;;;;;53.78;19.73;;;;;;;-7.96;100.00;99914.97;5026514;28;20029;-60
2024/01/11 05:47:31;;;;;;;;;;;;;;;-7.88;100.00;99923.41;5023599;28;20537;-60
2024/01/11 05:49:57;;;;;;;52.03;20.17;;;;;;;-7.92;100.00;99927.03;5033196;28;19917;-61
2024/01/11 05:52:22;;;;;;;58.72;19.55;;;;;;;-7.89;100.00;99931.31;5025298;28;20473;-60
2024/01/11 05:54:48;;;;;;;61.38;20.73;;;;;;;-7.98;100.00;99929.91;5026045;28;20025;-61
2024/01/11 05:57:14;;;;;;;54.50;19.60;;;;;;;-8.00;100.00;99923.88;5028581;28;20075;-61
2024/01/11 05:59:44;;;;;;;63.03;20.75;;;;;;;-7.97;100.00;99931.63;5033162;28;20140;-60
2024/01/11 06:02:10;;;;;;;55.15;19.92;;;;;;;-7.95;100.00;99932.44;5039668;28;20036;-60
2024/01/11 06:04:36;;;;;;;59.13;21.42;;;;;;;-7.94;100.00;99919.25;5041349;28;20469;-60
2024/01/11 06:07:01;;;;;;;63.42;20.15;;;;;;;-7.94;100.00;99928.88;5039175;28;20497;-60
2024/01/11 06:09:27;;;;;;;59.97;21.40;;;;;;;-7.85;100.00;99932.94;5030673;28;20041;-60
2024/01/11 06:11:53;;;;;;;62.22;21.70;;;;;;;-7.87;100.00;99934.75;5035012;28;20437;-60
2024/01/11 06:14:27;;;;;;;54.30;20.58;;;;;;;-7.96;100.00;99920.22;5048297;28;20064;-61
2024/01/11 06:16:52;;;;;;;54.35;19.75;;;;;;;-7.80;100.00;99928.34;5035534;28;20033;-60
2024/01/11 06:19:19;;;;;;;59.42;21.95;;;;;;;-7.79;100.00;99924.81;5041294;28;20033;-60
2024/01/11 06:21:44;;;;;;;65.63;23.17;;;;;;;-7.86;100.00;99915.44;5036380;28;20029;-61
2024/01/11 06:24:10;;;;;;;62.83;23.48;;;;;;;-7.91;100.00;99923.53;5041659;28;20033;-61
2024/01/11 06:26:36;;;;;;;52.13;19.00;;;;;;;-7.89;100.00;99918.19;5025544;28;20037;-62
2024/01/11 06:29:01;;;;;;;54.90;19.42;;;;;;;-7.79;100.00;99923.03;5031425;28;20033;-61
2024/01/11 06:31:38;;;;;;;60.45;22.95;;;;;;;-7.83;100.00;99915.31;5039789;28;20094;-60
2024/01/11 06:34:04;;;;;;;65.00;21.52;;;;;;;-7.91;100.00;99923.53;5086796;22;20077;-55
2024/01/11 06:36:30;;;;;;;59.90;20.92;;;;;;;-7.96;100.00;99926.31;4999629;28;20370;-55
2024/01/11 06:38:55;;;;;;;60.05;21.98;;;;;;;-8.04;100.00;99932.75;4994982;28;20041;-54
2024/01/11 06:41:21;;;;;;;51.63;19.42;;;;;;;-8.07;100.00;99933.72;4999371;28;20057;-54
2024/01/11 06:43:46;;;;;;;60.15;21.42;;;;;;;-8.10;100.00;99939.09;4987556;28;20030;-48
2024/01/11 06:46:12;;;;;;;57.90;19.80;;;;;;;-8.09;100.00;99946.09;4997042;28;20458;-53
2024/01/11 06:51:21;;;;;;;53.65;18.13;;;;;;;-8.35;100.00;99918.19;5156702;22;20107;-53
2024/01/11 06:53:47;;;;;;;48.30;20.65;;;;;;;-8.19;100.00;99961.31;5023552;28;20137;-54
2024/01/11 06:56:21;;;;;;;62.15;21.70;;;;;;;-8.11;100.00;99949.69;5024437;28;20116;-54
2024/01/11 06:58:47;;;;;;;52.40;21.08;;;;;;;-8.01;100.00;99964.19;5021387;28;20041;-54
2024/01/11 07:01:13;;;;;;;54.83;20.08;;;;;;;-8.07;100.00;99946.00;5127433;22;20076;-53
2024/01/11 07:03:39;;;;;;;66.05;19.63;;;;;;;-8.05;100.00;99950.28;5222092;22;20171;-49
2024/01/11 07:06:05;;;;;;;50.53;18.83;;;;;;;-8.06;100.00;99951.22;5046652;28;20046;-48
2024/01/11 07:08:32;;;;;;;56.47;19.73;;;;;;;-8.04;100.00;99969.53;5050281;28;20044;-52
2024/01/11 07:10:58;;;;;;;53.00;19.95;;;;;;;-8.00;100.00;99985.13;5047338;28;20029;-52
2024/01/11 07:13:23;;;;;;;60.78;21.20;;;;;;;-7.99;100.00;99967.59;5044683;28;20037;-52
2024/01/11 07:15:51;;;;;;;58.63;21.75;;;;;;;-7.86;100.00;99975.84;5036982;28;20105;-52
2024/01/11 07:18:17;;;;;;;58.17;19.50;;;;;;;-7.89;100.00;99976.81;5051226;28;20025;-51
2024/01/11 07:20:42;;;;;;;62.80;22.27;;;;;;;-7.89;100.00;99974.19;5048224;28;20033;-51
2024/01/11 07:23:08;;;;;;;60.83;21.30;;;;;;;-7.91;100.00;99975.16;5048317;28;20021;-52
2024/01/11 07:25:34;;;;;;;52.78;20.05;;;;;;;-7.85;100.00;99975.81;5051050;28;20417;-52
2024/01/11 07:28:00;;;;;;;62.33;20.75;;;;;;;-7.83;100.00;99989.75;5054007;28;20490;-52
2024/01/11 07:30:25;;;;;;;57.08;20.90;;;;;;;-7.82;100.00;99980.94;5048626;28;20033;-52
2024/01/11 07:32:51;;;;;;;55.72;21.15;;;;;;;-7.76;100.00;99975.44;5050812;28;20052;-53
2024/01/11 07:35:16;;;;;;;64.45;21.13;;;;;;;-7.67;100.00;99991.78;5050609;28;20029;-52
2024/01/11 07:37:42;;;;;;;56.97;19.95;;;;;;;-7.63;100.00;100009.97;5055217;28;20096;-53
2024/01/11 07:40:10;;;;;;;67.20;26.67;;;;;;;-7.69;100.00;100004.97;5051625;28;20384;-52
2024/01/11 07:42:39;;;;;;;60.95;21.33;;;;;;;-7.57;100.00;100009.78;5033598;28;20025;-52
2024/01/11 07:45:06;;;;;;;75.85;22.83;;;;;;;-7.48;100.00;100008.53;5047317;28;20546;-52
2024/01/11 07:47:32;;;;;;;66.38;22.60;;;;;;;-7.34;100.00;100008.00;5050716;28;20071;-53
2024/01/11 07:49:57;;;;;;;56.95;21.63;;;;;;;-7.19;100.00;100017.91;5057309;28;20029;-53
2024/01/11 07:52:23;;;;;;;64.15;21.10;;;;;;;-7.06;100.00;100013.00;5054974;28;20025;-53
2024/01/11 07:54:48;;;;;;;61.42;21.65;;;;;;;-7.01;100.00;100016.31;5048464;28;20131;-52
2024/01/11 07:57:13;;;;;;;59.38;22.92;;;;;;;-6.96;100.00;100022.22;5049914;28;20081;-52
2024/01/11 07:59:39;;;;;;;62.17;21.83;;;;;;;-6.88;100.00;100021.91;5046652;28;20114;-52
2024/01/11 08:02:05;;;;;;;62.05;22.48;;;;;;;-6.78;100.00;100027.66;5048474;28;20029;-52
2024/01/11 08:04:31;;;;;;;55.08;20.65;;;;;;;-6.67;100.00;100020.16;5049933;28;20029;-52
2024/01/11 08:06:59;;;;;;;56.38;21.85;;;;;;;-6.50;100.00;100036.09;5052527;28;20035;-52
2024/01/11 08:09:24;;;;;;;59.78;21.02;;;;;;;-6.38;100.00;100036.50;5034834;28;20051;-52
2024/01/11 08:11:50;;;;;;;62.42;21.70;;;;;;;-6.27;100.00;100027.19;5052389;28;20025;-52
2024/01/11 08:14:15;;;;;;;58.70;20.45;;;;;;;-6.20;100.00;100026.00;5045080;28;20041;-53
2024/01/11 08:16:40;;;;;;;60.75;22.25;;;;;;;-6.08;100.00;100037.78;5052103;28;20032;-52
2024/01/11 08:19:06;;;;;;;65.38;20.85;;;;;;;-5.88;100.00;100030.75;5048710;28;20469;-52
2024/01/11 08:21:31;;;;;;;56.90;20.15;;;;;;;-5.66;100.00;100035.88;5048056;28;20057;-52
2024/01/11 08:23:57;;;;;;;64.70;23.85;;;;;;;-5.54;100.00;100037.97;5044663;28;20029;-52
2024/01/11 08:26:23;;;;;;;55.25;20.77;;;;;;;-5.50;100.00;100029.00;5041573;28;20052;-52
2024/01/11 08:28:48;;;;;;;59.75;20.05;;;;;;;-5.44;100.00;100022.56;5052926;28;20024;-52
2024/01/11 08:31:14;;;;;;;55.95;22.35;;;;;;;-5.38;100.00;100024.91;5030997;28;20020;-52
2024/01/11 08:33:39;;;;;;;57.70;22.77;;;;;;;-5.20;100.00;100018.75;5053356;28;20068;-52
2024/01/11 08:36:06;;;;;;;60.22;21.42;;;;;;;-5.02;100.00;100032.00;5036891;28;20036;-52
2024/01/11 08:38:32;;;;;;;59.13;21.90;;;;;;;-4.98;100.00;100022.97;5049503;28;20104;-52
2024/01/11 08:40:58;;;;;;;60.95;20.38;;;;;;;-4.99;100.00;100022.13;5046601;28;20070;-52
2024/01/11 08:43:26;;;;;;;53.80;20.80;;;;;;;-4.97;100.00;100016.78;5050921;28;20024;-52
2024/01/11 08:45:52;;;;;;;40.05;16.20;;;;;;;-4.72;100.00;100024.34;5046509;28;20441;-52
2024/01/11 08:48:17;;;;;;;49.85;19.85;;;;;;;-4.44;100.00;100018.53;5051934;28;20025;-52
2024/01/11 08:50:43;;;;;;;52.60;21.95;;;;;;;-4.24;100.00;100031.56;5029530;28;20370;-52
2024/01/11 08:53:08;;;;;;;54.50;20.35;;;;;;;-4.06;100.00;100039.44;5053563;28;20089;-52
2024/01/11 08:55:34;;;;;;;50.42;20.67;;;;;;;-3.97;100.00;100037.19;5042171;28;20021;-52
2024/01/11 08:57:59;;;;;;;52.15;21.23;;;;;;;-3.06;100.00;100029.59;5050316;28;20020;-52
2024/01/11 09:00:25;;;;;;;45.00;19.48;;;;;;;-1.46;100.00;100015.59;5049504;28;20116;-52
2024/01/11 09:02:51;;;;;;;47.38;18.75;;;;;;;0.39;100.00;100033.38;5041328;28;20480;-53
2024/01/11 09:05:16;;;;;;;52.70;19.70;;;;;;;1.84;100.00;100016.47;5045523;28;20116;-54
2024/01/11 09:07:42;;;;;;;51.50;18.52;;;;;;;3.31;100.00;100017.25;5050587;28;20092;-54
2024/01/11 09:10:14;;;;;;;44.40;19.83;;;;;;;4.14;88.12;100013.78;5049442;28;20032;-54
2024/01/11 09:12:39;;;;;;;42.08;21.10;;;;;;;5.18;80.20;100026.97;5049138;28;20143;-54
2024/01/11 09:15:05;;;;;;;42.78;22.38;;;;;;;5.61;75.92;100001.59;5045613;28;20476;-54
2024/01/11 09:17:31;;;;;;;47.60;22.63;;;;;;;5.81;71.42;100005.94;5053272;28;20021;-54
2024/01/11 09:19:56;;;;;;;51.00;24.15;;;;;;;5.39;73.69;100019.66;5045733;28;20104;-54
2024/01/11 09:22:21;;;;;;;48.83;24.65;;;;;;;6.74;69.31;100006.97;5050859;28;20108;-54
2024/01/11 09:24:47;;;;;;;47.15;23.85;;;;;;;7.54;65.06;100007.16;5048710;28;20075;-54
2024/01/11 09:27:14;;;;;;;44.97;24.35;;;;;;;7.17;64.14;99991.97;5042437;28;20457;-54
2024/01/11 09:29:46;;;;;;;51.10;24.88;;;;;;;6.30;64.18;100001.34;5053424;28;20045;-53
2024/01/11 09:32:12;;;;;;;47.28;23.88;;;;;;;5.01;67.14;99999.84;5046951;28;20345;-53
2024/01/11 09:34:38;;;;;;;50.65;23.70;;;;;;;5.07;67.63;100005.66;5045355;28;20032;-53
2024/01/11 09:37:03;;;;;;;41.30;22.10;;;;;;;5.92;67.05;100005.78;5045017;28;20021;-54
2024/01/11 09:39:29;;;;;;;46.25;22.77;;;;;;;7.17;62.96;99997.34;5048881;28;20082;-54
2024/01/11 09:42:09;;;;;;;44.50;23.80;;;;;;;8.59;62.09;99993.75;5049240;28;20043;-51
2024/01/11 09:44:35;;;;;;;40.70;23.13;;;;;;;8.43;59.38;100006.16;5044171;28;20051;-51
2024/01/11 09:47:02;;;;;;;37.60;21.55;;;;;;;9.11;58.45;99993.63;5049225;28;20081;-51
2024/01/11 09:49:30;;;;;;;40.38;20.75;;;;;;;9.43;57.12;100006.34;5049123;28;20143;-52
2024/01/11 09:51:59;;;;;;;36.55;20.77;;;;;;;9.72;56.37;99997.78;5050631;28;20075;-52
2024/01/11 09:54:26;;;;;;;38.25;21.08;;;;;;;10.46;55.71;99982.31;5043694;28;20144;-52
2024/01/11 09:56:54;;;;;;;36.00;20.73;;;;;;;10.86;54.39;99991.31;5050566;28;20025;-52
2024/01/11 09:59:23;;;;;;;36.77;21.63;;;;;;;10.22;52.84;99994.03;5043678;28;20064;-53
2024/01/11 10:01:49;;;;;;;36.72;21.77;;;;;;;10.42;52.73;99989.09;5048009;28;20028;-53
2024/01/11 10:04:16;;;;;;;37.75;22.10;;;;;;;10.51;53.55;99971.00;5044689;28;20055;-53
2024/01/11 10:06:42;;;;;;;35.58;20.58;;;;;;;11.61;52.64;99965.47;5047339;28;20514;-53
2024/01/11 10:09:09;;;;;;;36.95;21.08;;;;;;;10.89;51.73;99973.88;5049575;28;20101;-53
2024/01/11 10:11:34;;;;;;;31.27;20.80;;;;;;;11.76;50.75;99966.38;5052393;28;20476;-53
2024/01/11 10:14:01;;;;;;;33.63;20.33;;;;;;;13.20;49.49;99958.78;5045548;28;20112;-53
2024/01/11 10:16:31;;;;;;;33.00;20.52;;;;;;;11.94;49.75;99966.03;5047487;28;20061;-53
2024/01/11 10:18:57;;;;;;;31.25;20.05;;;;;;;10.99;49.86;99974.50;5032474;28;20475;-53
2024/01/11 10:21:23;;;;;;;33.42;21.20;;;;;;;9.71;51.18;99968.22;5050227;28;20029;-52
2024/01/11 10:23:50;;;;;;;32.65;20.65;;;;;;;9.67;52.03;99973.13;5050267;28;20365;-52
2024/01/11 10:26:17;;;;;;;30.25;19.77;;;;;;;10.79;52.16;99967.81;5045993;28;20144;-53
2024/01/11 10:28:47;;;;;;;30.00;19.55;;;;;;;12.25;49.83;99970.50;5047051;28;20151;-52
2024/01/11 10:31:14;;;;;;;34.70;20.45;;;;;;;11.57;50.02;99972.25;5043358;28;20021;-52
2024/01/11 10:33:47;;;;;;;34.17;20.95;;;;;;;11.33;50.58;99967.88;5048527;28;21099;-52
2024/01/11 10:36:12;;;;;;;33.72;21.13;;;;;;;12.80;49.34;99969.19;5046767;28;20020;-52
2024/01/11 10:38:39;;;;;;;32.28;21.08;;;;;;;12.84;48.38;99970.50;5051281;28;20024;-52
2024/01/11 10:41:06;;;;;;;32.08;20.10;;;;;;;13.88;47.30;99972.03;5047979;28;20082;-52
2024/01/11 10:43:37;;;;;;;35.15;20.88;;;;;;;12.72;47.48;99972.00;5051883;28;20107;-52
2024/01/11 10:46:04;;;;;;;31.15;20.40;;;;;;;13.03;46.59;99976.38;5045111;28;20393;-52
2024/01/11 10:48:31;;;;;;;32.80;20.38;;;;;;;13.18;46.15;99976.31;5041677;28;20021;-52
2024/01/11 10:51:05;;;;;;;30.75;20.73;;;;;;;13.74;46.35;99966.47;5041531;22;20069;-73
2024/01/11 10:53:45;;;;;;;30.08;20.33;;;;;;;11.85;47.75;99972.53;5029553;28;20032;-73
2024/01/11 10:56:12;;;;;;;33.70;20.83;;;;;;;12.54;47.13;99949.81;5028207;28;20363;-72
2024/01/11 10:58:42;;;;;;;30.70;19.52;;;;;;;15.81;45.37;99962.09;5030626;28;20025;-72
2024/01/11 11:01:08;;;;;;;33.45;20.23;;;;;;;14.02;44.91;99968.41;5036648;28;20045;-72
2024/01/11 11:03:35;;;;;;;32.92;20.95;;;;;;;12.13;46.66;99978.25;5037546;28;20075;-72
2024/01/11 11:06:01;;;;;;;36.90;22.13;;;;;;;12.01;46.50;99967.00;5033363;28;20550;-73
2024/01/11 11:08:27;;;;;;;32.72;20.35;;;;;;;14.28;45.51;99945.13;5036255;28;20029;-72